sensor_id;sensor_type;location;lat;lon;timestamp;P1;durP1;ratioP1;P2;durP2;ratioP2
17528;SDS011;8882;53.192;8.184;2022-12-24T08:02:20;10.83;;;2.60;;
17528;SDS011;8882;53.192;8.184;2022-12-24T08:04:46;12.57;;;2.80;;
17528;SDS011;8882;53.192;8.184;2022-12-24T08:07:11;13.30;;;2.73;;
17528;SDS011;8882;53.192;8.184;2022-12-24T08:09:37;15.33;;;3.10;;
17528;SDS011;8882;53.192;8.184;2022-12-24T08:12:03;10.57;;;3.03;;
17528;SDS011;8882;53.192;8.184;2022-12-24T08:14:29;13.70;;;3.20;;
17528;SDS011;8882;53.192;8.184;2022-12-24T08:16:55;8.93;;;2.70;;
17528;SDS011;8882;53.192;8.184;2022-12-24T08:19:21;11.73;;;2.60;;
17528;SDS011;8882;53.192;8.184;2022-12-24T08:21:47;12.23;;;2.83;;
17528;SDS011;8882;53.192;8.184;2022-12-24T08:24:12;12.10;;;2.80;;
17528;SDS011;8882;53.192;8.184;2022-12-24T08:26:38;17.17;;;2.93;;
17528;SDS011;8882;53.192;8.184;2022-12-24T08:29:04;16.57;;;3.27;;
17528;SDS011;8882;53.192;8.184;2022-12-24T08:31:30;13.73;;;3.00;;
17528;SDS011;8882;53.192;8.184;2022-12-24T08:36:30;16.60;;;3.40;;
17528;SDS011;8882;53.192;8.184;2022-12-24T08:38:55;13.80;;;3.43;;
17528;SDS011;8882;53.192;8.184;2022-12-24T08:41:21;12.37;;;4.00;;
17528;SDS011;8882;53.192;8.184;2022-12-24T08:43:46;19.33;;;3.97;;
17528;SDS011;8882;53.192;8.184;2022-12-24T08:46:12;10.03;;;3.30;;
17528;SDS011;8882;53.192;8.184;2022-12-24T08:48:37;19.37;;;3.60;;
17528;SDS011;8882;53.192;8.184;2022-12-24T08:51:10;13.70;;;3.40;;
17528;SDS011;8882;53.192;8.184;2022-12-24T08:53:36;19.60;;;3.37;;
17528;SDS011;8882;53.192;8.184;2022-12-24T08:56:03;26.57;;;4.20;;
17528;SDS011;8882;53.192;8.184;2022-12-24T08:58:30;20.47;;;3.97;;
17528;SDS011;8882;53.192;8.184;2022-12-24T09:00:56;18.70;;;3.80;;
17528;SDS011;8882;53.192;8.184;2022-12-24T09:03:22;17.10;;;2.70;;
17528;SDS011;8882;53.192;8.184;2022-12-24T09:05:48;15.80;;;3.50;;
17528;SDS011;8882;53.192;8.184;2022-12-24T09:08:14;13.90;;;3.20;;
17528;SDS011;8882;53.192;8.184;2022-12-24T09:10:39;19.97;;;3.47;;
17528;SDS011;8882;53.192;8.184;2022-12-24T09:13:05;29.07;;;4.10;;
17528;SDS011;8882;53.192;8.184;2022-12-24T09:15:30;11.97;;;3.57;;
17528;SDS011;8882;53.192;8.184;2022-12-24T09:17:56;20.50;;;3.20;;
17528;SDS011;8882;53.192;8.184;2022-12-24T09:20:22;19.13;;;3.13;;
17528;SDS011;8882;53.192;8.184;2022-12-24T09:22:47;19.77;;;3.83;;
17528;SDS011;8882;53.192;8.184;2022-12-24T09:25:12;17.33;;;3.30;;
17528;SDS011;8882;53.192;8.184;2022-12-24T09:27:38;19.90;;;3.30;;
17528;SDS011;8882;53.192;8.184;2022-12-24T09:30:04;12.50;;;2.87;;
17528;SDS011;8882;53.192;8.184;2022-12-24T09:32:31;16.17;;;4.40;;
17528;SDS011;8882;53.192;8.184;2022-12-24T09:34:56;13.87;;;3.20;;
17528;SDS011;8882;53.192;8.184;2022-12-24T09:37:22;21.63;;;3.30;;
17528;SDS011;8882;53.192;8.184;2022-12-24T09:39:47;15.73;;;3.17;;
17528;SDS011;8882;53.192;8.184;2022-12-24T09:42:27;17.80;;;4.10;;
17528;SDS011;8882;53.192;8.184;2022-12-24T09:45:27;18.70;;;3.27;;
17528;SDS011;8882;53.192;8.184;2022-12-24T09:48:00;11.47;;;3.60;;
17528;SDS011;8882;53.192;8.184;2022-12-24T09:50:39;14.17;;;4.03;;
17528;SDS011;8882;53.192;8.184;2022-12-24T09:53:31;12.20;;;3.57;;
17528;SDS011;8882;53.192;8.184;2022-12-24T09:56:03;14.60;;;3.93;;
17528;SDS011;8882;53.192;8.184;2022-12-24T09:58:46;16.40;;;3.50;;
17528;SDS011;8882;53.192;8.184;2022-12-24T10:01:22;21.60;;;4.57;;
17528;SDS011;8882;53.192;8.184;2022-12-24T10:03:47;15.90;;;3.87;;
17528;SDS011;8882;53.192;8.184;2022-12-24T10:06:14;18.10;;;3.60;;
17528;SDS011;8882;53.192;8.184;2022-12-24T10:11:53;15.33;;;3.90;;
17528;SDS011;8882;53.192;8.184;2022-12-24T10:17:35;17.13;;;4.40;;
17528;SDS011;8882;53.192;8.184;2022-12-24T10:23:10;13.83;;;3.87;;
17528;SDS011;8882;53.192;8.184;2022-12-24T10:25:39;12.53;;;3.77;;
17528;SDS011;8882;53.192;8.184;2022-12-24T10:28:11;12.47;;;3.80;;
17528;SDS011;8882;53.192;8.184;2022-12-24T10:30:40;22.10;;;4.30;;
17528;SDS011;8882;53.192;8.184;2022-12-24T10:33:17;15.37;;;3.73;;
17528;SDS011;8882;53.192;8.184;2022-12-24T10:35:47;17.50;;;4.20;;
17528;SDS011;8882;53.192;8.184;2022-12-24T10:38:17;17.97;;;4.03;;
17528;SDS011;8882;53.192;8.184;2022-12-24T10:40:43;17.93;;;3.93;;
17528;SDS011;8882;53.192;8.184;2022-12-24T10:43:16;16.67;;;3.30;;
17528;SDS011;8882;53.192;8.184;2022-12-24T10:45:47;16.93;;;3.73;;
17528;SDS011;8882;53.192;8.184;2022-12-24T10:48:27;15.53;;;4.10;;
17528;SDS011;8882;53.192;8.184;2022-12-24T10:51:02;11.67;;;3.00;;
17528;SDS011;8882;53.192;8.184;2022-12-24T10:53:39;13.70;;;3.20;;
17528;SDS011;8882;53.192;8.184;2022-12-24T10:56:09;13.93;;;3.90;;
17528;SDS011;8882;53.192;8.184;2022-12-24T10:58:36;16.70;;;3.27;;
17528;SDS011;8882;53.192;8.184;2022-12-24T11:01:08;17.03;;;3.60;;
17528;SDS011;8882;53.192;8.184;2022-12-24T11:03:34;16.77;;;3.67;;
17528;SDS011;8882;53.192;8.184;2022-12-24T11:06:06;21.83;;;4.00;;
17528;SDS011;8882;53.192;8.184;2022-12-24T11:08:40;14.20;;;4.10;;
17528;SDS011;8882;53.192;8.184;2022-12-24T11:11:17;22.23;;;4.03;;
17528;SDS011;8882;53.192;8.184;2022-12-24T11:13:45;19.00;;;5.40;;
17528;SDS011;8882;53.192;8.184;2022-12-24T11:16:29;14.93;;;3.83;;
17528;SDS011;8882;53.192;8.184;2022-12-24T11:18:58;10.63;;;3.53;;
17528;SDS011;8882;53.192;8.184;2022-12-24T11:21:30;14.30;;;4.70;;
17528;SDS011;8882;53.192;8.184;2022-12-24T11:24:04;17.43;;;3.57;;
17528;SDS011;8882;53.192;8.184;2022-12-24T11:26:32;13.80;;;4.13;;
17528;SDS011;8882;53.192;8.184;2022-12-24T11:31:47;21.43;;;3.80;;
17528;SDS011;8882;53.192;8.184;2022-12-24T11:34:20;18.90;;;4.17;;
17528;SDS011;8882;53.192;8.184;2022-12-24T11:36:46;13.10;;;3.90;;
17528;SDS011;8882;53.192;8.184;2022-12-24T11:39:18;17.47;;;3.23;;
17528;SDS011;8882;53.192;8.184;2022-12-24T11:41:46;14.23;;;3.40;;
17528;SDS011;8882;53.192;8.184;2022-12-24T11:44:22;19.33;;;3.60;;
17528;SDS011;8882;53.192;8.184;2022-12-24T11:46:52;14.80;;;4.00;;
17528;SDS011;8882;53.192;8.184;2022-12-24T11:49:31;16.27;;;4.23;;
17528;SDS011;8882;53.192;8.184;2022-12-24T11:52:19;21.23;;;4.70;;
17528;SDS011;8882;53.192;8.184;2022-12-24T11:57:19;16.80;;;3.73;;
17528;SDS011;8882;53.192;8.184;2022-12-24T11:59:49;10.57;;;3.80;;
17528;SDS011;8882;53.192;8.184;2022-12-24T12:02:22;11.40;;;4.07;;
17528;SDS011;8882;53.192;8.184;2022-12-24T12:04:59;16.20;;;4.00;;
17528;SDS011;8882;53.192;8.184;2022-12-24T12:07:33;16.77;;;4.80;;
17528;SDS011;8882;53.192;8.184;2022-12-24T12:10:04;13.20;;;4.60;;
17528;SDS011;8882;53.192;8.184;2022-12-24T12:12:35;16.00;;;4.87;;
17528;SDS011;8882;53.192;8.184;2022-12-24T12:15:16;15.97;;;4.43;;
17528;SDS011;8882;53.192;8.184;2022-12-24T12:17:55;21.50;;;4.20;;
17528;SDS011;8882;53.192;8.184;2022-12-24T12:23:43;12.83;;;4.07;;
17528;SDS011;8882;53.192;8.184;2022-12-24T12:26:11;19.80;;;4.67;;
17528;SDS011;8882;53.192;8.184;2022-12-24T12:28:45;17.73;;;3.83;;
17528;SDS011;8882;53.192;8.184;2022-12-24T12:31:34;14.13;;;3.77;;
17528;SDS011;8882;53.192;8.184;2022-12-24T12:34:16;10.90;;;3.43;;
17528;SDS011;8882;53.192;8.184;2022-12-24T12:36:48;10.47;;;3.87;;
17528;SDS011;8882;53.192;8.184;2022-12-24T12:39:17;12.40;;;3.43;;
17528;SDS011;8882;53.192;8.184;2022-12-24T12:41:52;11.33;;;3.17;;
17528;SDS011;8882;53.192;8.184;2022-12-24T12:47:29;14.33;;;3.00;;
17528;SDS011;8882;53.192;8.184;2022-12-24T12:50:16;15.47;;;3.40;;
17528;SDS011;8882;53.192;8.184;2022-12-24T12:55:50;8.17;;;2.40;;
17528;SDS011;8882;53.192;8.184;2022-12-24T12:58:29;11.80;;;2.70;;
17528;SDS011;8882;53.192;8.184;2022-12-24T13:01:07;9.10;;;2.40;;
17528;SDS011;8882;53.192;8.184;2022-12-24T13:09:38;12.83;;;2.70;;
17528;SDS011;8882;53.192;8.184;2022-12-24T13:14:50;12.57;;;3.07;;
17528;SDS011;8882;53.192;8.184;2022-12-24T13:18:10;9.63;;;2.43;;
17528;SDS011;8882;53.192;8.184;2022-12-24T13:20:53;11.37;;;2.80;;
17528;SDS011;8882;53.192;8.184;2022-12-24T13:23:19;8.80;;;3.00;;
17528;SDS011;8882;53.192;8.184;2022-12-24T13:25:51;7.67;;;2.37;;
17528;SDS011;8882;53.192;8.184;2022-12-24T13:30:44;11.33;;;3.57;;
17528;SDS011;8882;53.192;8.184;2022-12-24T13:33:11;7.23;;;2.90;;
17528;SDS011;8882;53.192;8.184;2022-12-24T13:35:55;14.20;;;2.83;;
17528;SDS011;8882;53.192;8.184;2022-12-24T13:40:52;10.77;;;2.37;;
17528;SDS011;8882;53.192;8.184;2022-12-24T13:43:18;6.27;;;2.30;;
17528;SDS011;8882;53.192;8.184;2022-12-24T13:45:45;8.43;;;2.60;;
17528;SDS011;8882;53.192;8.184;2022-12-24T13:48:29;6.57;;;2.47;;
17528;SDS011;8882;53.192;8.184;2022-12-24T13:50:57;9.37;;;2.37;;
17528;SDS011;8882;53.192;8.184;2022-12-24T13:53:26;13.30;;;2.20;;
17528;SDS011;8882;53.192;8.184;2022-12-24T13:55:58;8.33;;;3.10;;
17528;SDS011;8882;53.192;8.184;2022-12-24T13:58:44;8.40;;;2.33;;
17528;SDS011;8882;53.192;8.184;2022-12-24T14:01:13;8.67;;;2.20;;
17528;SDS011;8882;53.192;8.184;2022-12-24T14:03:50;13.27;;;2.83;;
17528;SDS011;8882;53.192;8.184;2022-12-24T14:06:22;8.70;;;2.33;;
17528;SDS011;8882;53.192;8.184;2022-12-24T14:08:52;8.67;;;2.10;;
17528;SDS011;8882;53.192;8.184;2022-12-24T14:11:21;11.73;;;2.20;;
17528;SDS011;8882;53.192;8.184;2022-12-24T14:13:50;7.83;;;2.17;;
17528;SDS011;8882;53.192;8.184;2022-12-24T14:16:17;4.83;;;1.87;;
17528;SDS011;8882;53.192;8.184;2022-12-24T14:18:58;9.77;;;1.73;;
17528;SDS011;8882;53.192;8.184;2022-12-24T14:21:34;8.60;;;1.90;;
17528;SDS011;8882;53.192;8.184;2022-12-24T14:24:09;7.03;;;1.80;;
17528;SDS011;8882;53.192;8.184;2022-12-24T14:26:44;6.70;;;2.10;;
17528;SDS011;8882;53.192;8.184;2022-12-24T14:29:31;9.70;;;1.87;;
17528;SDS011;8882;53.192;8.184;2022-12-24T14:32:01;10.93;;;2.30;;
17528;SDS011;8882;53.192;8.184;2022-12-24T14:34:37;11.00;;;2.47;;
17528;SDS011;8882;53.192;8.184;2022-12-24T14:37:03;7.83;;;2.53;;
17528;SDS011;8882;53.192;8.184;2022-12-24T14:39:36;5.83;;;2.03;;
17528;SDS011;8882;53.192;8.184;2022-12-24T14:45:02;8.93;;;2.13;;
17528;SDS011;8882;53.192;8.184;2022-12-24T14:47:54;7.30;;;2.53;;
17528;SDS011;8882;53.192;8.184;2022-12-24T14:50:47;12.43;;;2.07;;
17528;SDS011;8882;53.192;8.184;2022-12-24T14:53:27;14.63;;;2.60;;
17528;SDS011;8882;53.192;8.184;2022-12-24T14:56:14;5.83;;;2.23;;
17528;SDS011;8882;53.192;8.184;2022-12-24T14:58:42;9.07;;;2.33;;
17528;SDS011;8882;53.192;8.184;2022-12-24T15:04:33;11.80;;;2.40;;
17528;SDS011;8882;53.192;8.184;2022-12-24T15:06:42;12.97;;;3.67;;
17528;SDS011;8882;53.192;8.184;2022-12-24T15:09:18;8.50;;;2.43;;
17528;SDS011;8882;53.192;8.184;2022-12-24T15:11:46;10.30;;;1.90;;
17528;SDS011;8882;53.192;8.184;2022-12-24T15:14:14;9.23;;;2.23;;
17528;SDS011;8882;53.192;8.184;2022-12-24T15:16:41;8.53;;;2.23;;
17528;SDS011;8882;53.192;8.184;2022-12-24T15:19:26;11.43;;;2.47;;
17528;SDS011;8882;53.192;8.184;2022-12-24T15:21:57;8.77;;;2.40;;
17528;SDS011;8882;53.192;8.184;2022-12-24T15:24:24;7.63;;;1.93;;
17528;SDS011;8882;53.192;8.184;2022-12-24T15:26:52;11.60;;;2.37;;
17528;SDS011;8882;53.192;8.184;2022-12-24T15:29:20;7.07;;;2.13;;
17528;SDS011;8882;53.192;8.184;2022-12-24T15:31:51;16.55;;;3.15;;
17528;SDS011;8882;53.192;8.184;2022-12-24T15:34:26;6.87;;;2.20;;
17528;SDS011;8882;53.192;8.184;2022-12-24T15:36:59;7.30;;;1.87;;
17528;SDS011;8882;53.192;8.184;2022-12-24T15:39:27;14.93;;;2.10;;
17528;SDS011;8882;53.192;8.184;2022-12-24T15:41:53;5.33;;;1.87;;
17528;SDS011;8882;53.192;8.184;2022-12-24T15:44:37;8.00;;;2.43;;
17528;SDS011;8882;53.192;8.184;2022-12-24T15:47:06;11.30;;;1.80;;
17528;SDS011;8882;53.192;8.184;2022-12-24T15:49:39;7.13;;;2.27;;
17528;SDS011;8882;53.192;8.184;2022-12-24T15:52:08;8.97;;;2.57;;
17528;SDS011;8882;53.192;8.184;2022-12-24T15:54:36;11.13;;;2.33;;
17528;SDS011;8882;53.192;8.184;2022-12-24T15:57:13;9.80;;;2.53;;
17528;SDS011;8882;53.192;8.184;2022-12-24T15:59:54;12.90;;;1.80;;
17528;SDS011;8882;53.192;8.184;2022-12-24T16:05:16;10.90;;;2.93;;
17528;SDS011;8882;53.192;8.184;2022-12-24T16:07:41;8.87;;;2.13;;
17528;SDS011;8882;53.192;8.184;2022-12-24T16:10:36;7.73;;;2.13;;
17528;SDS011;8882;53.192;8.184;2022-12-24T16:13:14;10.00;;;2.73;;
17528;SDS011;8882;53.192;8.184;2022-12-24T16:15:53;7.70;;;3.93;;
17528;SDS011;8882;53.192;8.184;2022-12-24T16:18:35;28.63;;;9.53;;
17528;SDS011;8882;53.192;8.184;2022-12-24T16:21:22;20.47;;;8.10;;
17528;SDS011;8882;53.192;8.184;2022-12-24T16:26:52;37.30;;;15.55;;
17528;SDS011;8882;53.192;8.184;2022-12-24T16:29:18;28.50;;;11.67;;
17528;SDS011;8882;53.192;8.184;2022-12-24T16:31:51;12.83;;;4.40;;
17528;SDS011;8882;53.192;8.184;2022-12-24T16:34:19;12.70;;;2.43;;
17528;SDS011;8882;53.192;8.184;2022-12-24T16:36:49;11.88;;;4.22;;
17528;SDS011;8882;53.192;8.184;2022-12-24T16:39:16;9.03;;;3.20;;
17528;SDS011;8882;53.192;8.184;2022-12-24T16:41:47;10.63;;;4.03;;
17528;SDS011;8882;53.192;8.184;2022-12-24T16:44:35;7.97;;;2.97;;
17528;SDS011;8882;53.192;8.184;2022-12-24T16:47:01;9.68;;;3.00;;
17528;SDS011;8882;53.192;8.184;2022-12-24T16:49:27;17.43;;;3.37;;
17528;SDS011;8882;53.192;8.184;2022-12-24T16:51:53;12.83;;;4.97;;
17528;SDS011;8882;53.192;8.184;2022-12-24T16:54:18;13.93;;;4.07;;
17528;SDS011;8882;53.192;8.184;2022-12-24T16:56:44;11.10;;;3.37;;
17528;SDS011;8882;53.192;8.184;2022-12-24T16:59:13;9.87;;;4.50;;
17528;SDS011;8882;53.192;8.184;2022-12-24T17:01:41;17.17;;;5.50;;
17528;SDS011;8882;53.192;8.184;2022-12-24T17:04:06;23.30;;;7.83;;
17528;SDS011;8882;53.192;8.184;2022-12-24T17:06:32;12.27;;;6.20;;
17528;SDS011;8882;53.192;8.184;2022-12-24T17:08:57;13.93;;;3.43;;
17528;SDS011;8882;53.192;8.184;2022-12-24T17:11:23;8.03;;;2.50;;
17528;SDS011;8882;53.192;8.184;2022-12-24T17:13:48;12.20;;;3.47;;
17528;SDS011;8882;53.192;8.184;2022-12-24T17:16:14;19.13;;;8.60;;
17528;SDS011;8882;53.192;8.184;2022-12-24T17:18:39;19.50;;;7.13;;
17528;SDS011;8882;53.192;8.184;2022-12-24T17:21:05;8.57;;;3.97;;
17528;SDS011;8882;53.192;8.184;2022-12-24T17:23:31;18.23;;;4.50;;
17528;SDS011;8882;53.192;8.184;2022-12-24T17:25:57;7.80;;;3.20;;
17528;SDS011;8882;53.192;8.184;2022-12-24T17:28:23;12.73;;;2.70;;
17528;SDS011;8882;53.192;8.184;2022-12-24T17:30:48;15.00;;;4.10;;
17528;SDS011;8882;53.192;8.184;2022-12-24T17:33:14;11.03;;;3.47;;
17528;SDS011;8882;53.192;8.184;2022-12-24T17:35:40;10.83;;;4.20;;
17528;SDS011;8882;53.192;8.184;2022-12-24T17:38:06;9.83;;;4.37;;
17528;SDS011;8882;53.192;8.184;2022-12-24T17:40:31;9.13;;;4.50;;
17528;SDS011;8882;53.192;8.184;2022-12-24T17:42:57;13.27;;;3.33;;
17528;SDS011;8882;53.192;8.184;2022-12-24T17:45:23;13.00;;;3.37;;
17528;SDS011;8882;53.192;8.184;2022-12-24T17:47:48;10.87;;;3.60;;
17528;SDS011;8882;53.192;8.184;2022-12-24T17:50:14;15.17;;;4.03;;
17528;SDS011;8882;53.192;8.184;2022-12-24T17:52:39;15.43;;;4.30;;
17528;SDS011;8882;53.192;8.184;2022-12-24T17:55:05;27.10;;;7.47;;
17528;SDS011;8882;53.192;8.184;2022-12-24T17:57:31;15.23;;;7.00;;
17528;SDS011;8882;53.192;8.184;2022-12-24T17:59:56;11.10;;;3.57;;
17528;SDS011;8882;53.192;8.184;2022-12-24T18:02:22;13.87;;;4.73;;
17528;SDS011;8882;53.192;8.184;2022-12-24T18:04:47;14.33;;;6.27;;
17528;SDS011;8882;53.192;8.184;2022-12-24T18:07:13;8.73;;;3.13;;
17528;SDS011;8882;53.192;8.184;2022-12-24T18:09:40;8.90;;;2.73;;
17528;SDS011;8882;53.192;8.184;2022-12-24T18:12:09;18.10;;;3.80;;
17528;SDS011;8882;53.192;8.184;2022-12-24T18:14:36;12.07;;;3.70;;
17528;SDS011;8882;53.192;8.184;2022-12-24T18:17:01;12.50;;;4.17;;
17528;SDS011;8882;53.192;8.184;2022-12-24T18:19:27;10.80;;;3.10;;
17528;SDS011;8882;53.192;8.184;2022-12-24T18:21:52;11.30;;;4.23;;
17528;SDS011;8882;53.192;8.184;2022-12-24T18:24:18;18.30;;;6.77;;
17528;SDS011;8882;53.192;8.184;2022-12-24T18:26:43;15.43;;;4.30;;
17528;SDS011;8882;53.192;8.184;2022-12-24T18:29:10;10.37;;;3.73;;
17528;SDS011;8882;53.192;8.184;2022-12-24T18:31:36;9.73;;;3.47;;
17528;SDS011;8882;53.192;8.184;2022-12-24T18:34:03;14.27;;;3.60;;
17528;SDS011;8882;53.192;8.184;2022-12-24T18:36:30;10.57;;;3.43;;
17528;SDS011;8882;53.192;8.184;2022-12-24T18:38:56;7.73;;;3.03;;
17528;SDS011;8882;53.192;8.184;2022-12-24T18:41:23;7.60;;;3.50;;
17528;SDS011;8882;53.192;8.184;2022-12-24T18:43:50;10.63;;;2.70;;
17528;SDS011;8882;53.192;8.184;2022-12-24T18:46:18;7.50;;;3.57;;
17528;SDS011;8882;53.192;8.184;2022-12-24T18:48:45;12.20;;;3.90;;
17528;SDS011;8882;53.192;8.184;2022-12-24T18:51:11;13.40;;;4.43;;
17528;SDS011;8882;53.192;8.184;2022-12-24T18:53:38;23.97;;;5.87;;
17528;SDS011;8882;53.192;8.184;2022-12-24T18:56:04;13.23;;;3.90;;
17528;SDS011;8882;53.192;8.184;2022-12-24T18:58:31;13.23;;;3.30;;
17528;SDS011;8882;53.192;8.184;2022-12-24T19:00:57;8.83;;;3.33;;
17528;SDS011;8882;53.192;8.184;2022-12-24T19:03:22;7.73;;;3.20;;
17528;SDS011;8882;53.192;8.184;2022-12-24T19:05:48;8.07;;;3.23;;
17528;SDS011;8882;53.192;8.184;2022-12-24T19:08:13;10.57;;;4.07;;
17528;SDS011;8882;53.192;8.184;2022-12-24T19:10:39;7.87;;;4.70;;
17528;SDS011;8882;53.192;8.184;2022-12-24T19:13:04;15.53;;;5.23;;
17528;SDS011;8882;53.192;8.184;2022-12-24T19:15:30;10.43;;;4.30;;
17528;SDS011;8882;53.192;8.184;2022-12-24T19:17:55;13.80;;;5.23;;
17528;SDS011;8882;53.192;8.184;2022-12-24T19:20:21;8.97;;;4.90;;
17528;SDS011;8882;53.192;8.184;2022-12-24T19:22:46;12.40;;;5.43;;
17528;SDS011;8882;53.192;8.184;2022-12-24T19:25:12;12.50;;;4.20;;
17528;SDS011;8882;53.192;8.184;2022-12-24T19:27:37;11.23;;;3.73;;
17528;SDS011;8882;53.192;8.184;2022-12-24T19:30:03;9.30;;;3.50;;
17528;SDS011;8882;53.192;8.184;2022-12-24T19:32:29;14.60;;;3.60;;
17528;SDS011;8882;53.192;8.184;2022-12-24T19:34:55;14.57;;;3.53;;
17528;SDS011;8882;53.192;8.184;2022-12-24T19:37:20;13.37;;;4.43;;
17528;SDS011;8882;53.192;8.184;2022-12-24T19:39:46;14.10;;;4.83;;
17528;SDS011;8882;53.192;8.184;2022-12-24T19:42:11;11.17;;;4.47;;
17528;SDS011;8882;53.192;8.184;2022-12-24T19:44:37;16.77;;;4.27;;
17528;SDS011;8882;53.192;8.184;2022-12-24T19:47:02;12.07;;;4.47;;
17528;SDS011;8882;53.192;8.184;2022-12-24T19:49:28;11.60;;;3.33;;
17528;SDS011;8882;53.192;8.184;2022-12-24T19:51:53;9.93;;;3.50;;
17528;SDS011;8882;53.192;8.184;2022-12-24T19:54:19;8.87;;;3.23;;
17528;SDS011;8882;53.192;8.184;2022-12-24T19:56:45;10.57;;;3.83;;
17528;SDS011;8882;53.192;8.184;2022-12-24T19:59:11;13.33;;;4.37;;
17528;SDS011;8882;53.192;8.184;2022-12-24T20:01:36;9.83;;;3.97;;
17528;SDS011;8882;53.192;8.184;2022-12-24T20:04:02;10.43;;;4.37;;
17528;SDS011;8882;53.192;8.184;2022-12-24T20:06:29;6.67;;;3.67;;
17528;SDS011;8882;53.192;8.184;2022-12-24T20:09:00;9.90;;;3.47;;
17528;SDS011;8882;53.192;8.184;2022-12-24T20:11:29;10.13;;;3.40;;
17528;SDS011;8882;53.192;8.184;2022-12-24T20:13:58;7.13;;;3.47;;
17528;SDS011;8882;53.192;8.184;2022-12-24T20:16:25;9.10;;;3.10;;
17528;SDS011;8882;53.192;8.184;2022-12-24T20:18:53;8.37;;;3.57;;
17528;SDS011;8882;53.192;8.184;2022-12-24T20:21:20;10.10;;;4.20;;
17528;SDS011;8882;53.192;8.184;2022-12-24T20:23:46;11.37;;;4.93;;
17528;SDS011;8882;53.192;8.184;2022-12-24T20:26:12;16.10;;;4.70;;
17528;SDS011;8882;53.192;8.184;2022-12-24T20:28:40;9.33;;;3.80;;
17528;SDS011;8882;53.192;8.184;2022-12-24T20:33:40;10.27;;;3.40;;
17528;SDS011;8882;53.192;8.184;2022-12-24T20:36:07;12.20;;;3.53;;
17528;SDS011;8882;53.192;8.184;2022-12-24T20:38:33;12.70;;;4.40;;
17528;SDS011;8882;53.192;8.184;2022-12-24T20:40:59;11.60;;;4.27;;
17528;SDS011;8882;53.192;8.184;2022-12-24T20:43:25;10.97;;;4.20;;
17528;SDS011;8882;53.192;8.184;2022-12-24T20:45:51;14.90;;;4.83;;
17528;SDS011;8882;53.192;8.184;2022-12-24T20:48:17;11.60;;;4.00;;
17528;SDS011;8882;53.192;8.184;2022-12-24T20:50:43;16.90;;;4.13;;
17528;SDS011;8882;53.192;8.184;2022-12-24T20:53:09;14.83;;;4.23;;
17528;SDS011;8882;53.192;8.184;2022-12-24T20:55:34;14.33;;;4.70;;
17528;SDS011;8882;53.192;8.184;2022-12-24T20:58:00;8.43;;;4.43;;
17528;SDS011;8882;53.192;8.184;2022-12-24T21:00:26;10.50;;;4.40;;
17528;SDS011;8882;53.192;8.184;2022-12-24T21:02:51;10.53;;;4.20;;
17528;SDS011;8882;53.192;8.184;2022-12-24T21:05:17;13.03;;;4.87;;
17528;SDS011;8882;53.192;8.184;2022-12-24T21:07:43;13.77;;;5.27;;
17528;SDS011;8882;53.192;8.184;2022-12-24T21:10:10;16.17;;;7.03;;
17528;SDS011;8882;53.192;8.184;2022-12-24T21:12:37;18.60;;;8.20;;
17528;SDS011;8882;53.192;8.184;2022-12-24T21:15:23;20.30;;;8.70;;
17528;SDS011;8882;53.192;8.184;2022-12-24T21:17:51;26.70;;;8.17;;
17528;SDS011;8882;53.192;8.184;2022-12-24T21:20:17;22.80;;;7.40;;
17528;SDS011;8882;53.192;8.184;2022-12-24T21:22:43;18.17;;;9.73;;
17528;SDS011;8882;53.192;8.184;2022-12-24T21:25:09;19.13;;;7.20;;
17528;SDS011;8882;53.192;8.184;2022-12-24T21:27:35;12.67;;;5.30;;
17528;SDS011;8882;53.192;8.184;2022-12-24T21:30:03;12.40;;;5.97;;
17528;SDS011;8882;53.192;8.184;2022-12-24T21:32:31;16.03;;;6.83;;
17528;SDS011;8882;53.192;8.184;2022-12-24T21:34:56;15.23;;;7.63;;
17528;SDS011;8882;53.192;8.184;2022-12-24T21:37:22;22.03;;;7.80;;
17528;SDS011;8882;53.192;8.184;2022-12-24T21:39:48;24.37;;;8.23;;
17528;SDS011;8882;53.192;8.184;2022-12-24T21:42:14;15.67;;;6.27;;
17528;SDS011;8882;53.192;8.184;2022-12-24T21:44:39;16.83;;;6.57;;
17528;SDS011;8882;53.192;8.184;2022-12-24T21:47:05;15.33;;;5.13;;
17528;SDS011;8882;53.192;8.184;2022-12-24T21:49:31;12.17;;;5.30;;
17528;SDS011;8882;53.192;8.184;2022-12-24T21:52:15;14.43;;;5.60;;
17528;SDS011;8882;53.192;8.184;2022-12-24T21:54:41;9.47;;;4.87;;
17528;SDS011;8882;53.192;8.184;2022-12-24T21:57:07;13.50;;;5.00;;
17528;SDS011;8882;53.192;8.184;2022-12-24T21:59:52;17.07;;;5.73;;
